createdAt,value
2022-09-14T00:00:33.295Z,15.11
2022-09-14T00:05:55.645Z,15.06
2022-09-14T00:11:14.648Z,15.01
2022-09-14T00:16:39.591Z,14.94
2022-09-14T00:21:45.730Z,14.86
2022-09-14T00:26:48.219Z,14.80
2022-09-14T00:31:51.181Z,14.69
2022-09-14T00:36:54.461Z,14.57
2022-09-14T00:41:57.656Z,14.47
2022-09-14T00:47:02.963Z,14.39
2022-09-14T00:52:10.946Z,14.37
2022-09-14T00:57:16.082Z,14.33
2022-09-14T01:02:21.817Z,14.34
2022-09-14T01:07:43.293Z,14.31
2022-09-14T01:13:27.980Z,14.32
2022-09-14T01:18:38.399Z,14.32
2022-09-14T01:23:55.236Z,14.35
2022-09-14T01:29:17.176Z,14.35
2022-09-14T01:34:29.347Z,14.39
2022-09-14T01:39:35.887Z,14.43
2022-09-14T01:44:46.064Z,14.43
2022-09-14T01:49:54.761Z,14.40
2022-09-14T01:55:18.672Z,14.40
2022-09-14T02:00:25.802Z,14.47
2022-09-14T02:05:39.894Z,14.55
2022-09-14T02:10:43.422Z,14.63
2022-09-14T02:15:46.737Z,14.60
2022-09-14T02:21:03.164Z,14.60
2022-09-14T02:26:06.115Z,14.57
2022-09-14T02:31:24.203Z,14.48
2022-09-14T02:36:38.468Z,14.41
2022-09-14T02:41:57.508Z,14.32
2022-09-14T02:47:12.579Z,14.30
2022-09-14T02:52:36.766Z,14.25
2022-09-14T02:58:04.663Z,14.22
2022-09-14T03:03:09.169Z,14.17
2022-09-14T03:08:12.370Z,14.08
2022-09-14T03:13:15.808Z,14.07
2022-09-14T03:18:18.957Z,14.13
2022-09-14T03:23:21.521Z,14.23
2022-09-14T03:28:23.700Z,14.33
2022-09-14T03:33:25.727Z,14.39
2022-09-14T03:38:30.161Z,14.42
2022-09-14T03:43:33.416Z,14.47
2022-09-14T03:48:36.102Z,14.56
2022-09-14T03:53:40.282Z,14.58
2022-09-14T03:58:44.711Z,14.61
2022-09-14T04:03:48.713Z,14.59
2022-09-14T04:08:50.795Z,14.69
2022-09-14T04:13:52.872Z,14.79
2022-09-14T04:18:54.879Z,14.71
2022-09-14T04:24:16.195Z,14.64
2022-09-14T04:29:19.292Z,14.70
2022-09-14T04:34:21.103Z,14.78
2022-09-14T04:39:24.319Z,14.86
2022-09-14T04:44:27.409Z,14.89
2022-09-14T04:49:33.003Z,14.88
2022-09-14T04:54:36.012Z,14.86
2022-09-14T04:59:38.055Z,14.92
2022-09-14T05:04:39.819Z,14.98
2022-09-14T05:09:43.744Z,15.04
2022-09-14T05:14:46.921Z,15.04
2022-09-14T05:19:49.612Z,15.09
2022-09-14T05:24:51.548Z,15.10
2022-09-14T05:29:53.867Z,15.12
2022-09-14T05:34:56.027Z,15.18
2022-09-14T05:39:59.187Z,15.24
2022-09-14T05:45:01.540Z,15.32
2022-09-14T05:50:04.650Z,15.50
2022-09-14T05:55:08.256Z,15.63
2022-09-14T06:00:12.226Z,15.77
2022-09-14T06:05:15.160Z,15.89
2022-09-14T06:10:18.832Z,15.95
2022-09-14T06:15:24.843Z,16.04
2022-09-14T06:20:27.979Z,16.05
2022-09-14T06:25:31.222Z,16.08
2022-09-14T06:30:33.982Z,16.20
2022-09-14T06:35:37.207Z,16.53
2022-09-14T06:40:39.284Z,16.79
2022-09-14T06:45:41.965Z,16.87
2022-09-14T06:50:44.857Z,17.16
2022-09-14T06:55:47.671Z,17.45
2022-09-14T07:00:50.686Z,17.54
2022-09-14T07:06:01.443Z,17.73
2022-09-14T07:11:06.014Z,18.26
2022-09-14T07:16:08.787Z,18.67
2022-09-14T07:21:14.833Z,18.97
2022-09-14T07:26:20.691Z,19.56
2022-09-14T07:31:27.485Z,20.09
2022-09-14T07:36:34.774Z,20.46
2022-09-14T07:41:39.216Z,21.15
2022-09-14T07:46:43.126Z,21.86
2022-09-14T07:51:46.031Z,22.10
2022-09-14T07:56:50.408Z,22.15
2022-09-14T08:01:52.293Z,22.15
2022-09-14T08:06:54.664Z,22.22
2022-09-14T08:11:58.071Z,22.11
2022-09-14T08:17:00.635Z,22.13
2022-09-14T08:22:04.743Z,21.88
2022-09-14T08:27:07.074Z,21.62
2022-09-14T08:32:12.564Z,21.29
2022-09-14T08:37:15.078Z,21.04
2022-09-14T08:42:20.433Z,21.03
2022-09-14T08:47:38.460Z,20.90
2022-09-14T08:52:56.246Z,20.99
2022-09-14T08:58:31.245Z,21.03
2022-09-14T09:03:39.233Z,21.02
2022-09-14T09:08:44.665Z,20.99
2022-09-14T09:13:53.422Z,20.91
2022-09-14T09:19:02.231Z,20.99
2022-09-14T09:24:17.903Z,21.32
2022-09-14T09:29:20.685Z,21.55
2022-09-14T09:34:28.751Z,21.81
2022-09-14T09:39:32.431Z,22.08
2022-09-14T09:45:01.761Z,22.06
2022-09-14T09:50:26.696Z,22.00
2022-09-14T09:55:38.006Z,22.25
2022-09-14T10:00:40.178Z,22.47
2022-09-14T10:05:43.009Z,22.57
2022-09-14T10:10:46.084Z,22.49
2022-09-14T10:15:49.846Z,21.98
2022-09-14T10:20:53.278Z,21.66
2022-09-14T10:26:13.590Z,21.83
2022-09-14T10:31:18.562Z,22.09
2022-09-14T10:36:31.988Z,22.49
2022-09-14T10:41:57.344Z,22.91
2022-09-14T10:47:40.094Z,23.20
2022-09-14T10:53:03.102Z,23.40
2022-09-14T10:58:28.728Z,23.44
2022-09-14T11:03:43.972Z,23.11
2022-09-14T11:08:56.152Z,23.08
2022-09-14T11:14:24.978Z,23.15
2022-09-14T11:19:54.752Z,22.82
2022-09-14T11:25:13.326Z,22.45
2022-09-14T11:30:22.758Z,22.44
2022-09-14T11:35:46.394Z,22.67
2022-09-14T11:40:57.435Z,22.68
2022-09-14T11:46:09.764Z,22.64
2022-09-14T11:51:36.738Z,22.59
2022-09-14T11:56:39.990Z,22.50
2022-09-14T12:01:43.369Z,22.48
2022-09-14T12:06:54.407Z,22.67
2022-09-14T12:12:03.582Z,22.76
2022-09-14T12:22:49.398Z,22.85
2022-09-14T12:27:53.815Z,22.68
2022-09-14T12:32:56.081Z,22.62
2022-09-14T12:38:18.800Z,22.54
2022-09-14T12:43:32.539Z,22.26
2022-09-14T12:48:48.374Z,21.89
2022-09-14T12:54:04.153Z,21.63
2022-09-14T12:59:30.439Z,21.53
2022-09-14T13:04:35.025Z,21.54
2022-09-14T13:09:37.351Z,21.48
2022-09-14T13:14:56.434Z,21.42
2022-09-14T13:20:05.921Z,21.31
2022-09-14T13:25:34.217Z,21.29
2022-09-14T13:30:37.792Z,21.22
2022-09-14T13:35:49.402Z,21.20
2022-09-14T13:40:56.720Z,21.41
2022-09-14T13:46:00.333Z,21.52
2022-09-14T13:51:06.506Z,21.63
2022-09-14T13:56:23.477Z,21.49
2022-09-14T14:01:30.147Z,21.19
2022-09-14T14:06:37.807Z,20.88
2022-09-14T14:11:55.341Z,20.67
2022-09-14T14:17:24.469Z,20.56
2022-09-14T14:22:34.244Z,20.48
2022-09-14T14:27:43.443Z,20.45
2022-09-14T14:32:56.905Z,20.46
2022-09-14T14:37:59.525Z,20.44
2022-09-14T14:43:04.084Z,20.36
2022-09-14T14:48:10.325Z,20.20
2022-09-14T14:53:13.646Z,20.08
2022-09-14T14:58:18.358Z,20.08
2022-09-14T15:03:21.232Z,20.09
2022-09-14T15:08:24.618Z,20.07
2022-09-14T15:13:28.021Z,20.12
2022-09-14T15:18:30.264Z,20.14
2022-09-14T15:23:32.822Z,20.01
2022-09-14T15:28:38.491Z,19.85
2022-09-14T15:33:41.874Z,19.83
2022-09-14T15:38:44.499Z,19.77
2022-09-14T15:43:47.725Z,19.66
2022-09-14T15:48:49.864Z,19.61
2022-09-14T15:53:52.942Z,19.57
2022-09-14T15:59:01.041Z,19.50
2022-09-14T16:04:09.623Z,19.38
2022-09-14T16:09:17.411Z,19.20
2022-09-14T16:14:19.934Z,19.08
2022-09-14T16:19:22.967Z,19.00
2022-09-14T16:24:26.833Z,18.92
2022-09-14T16:29:29.233Z,18.86
2022-09-14T16:34:32.009Z,18.67
2022-09-14T16:39:35.666Z,18.58
2022-09-14T16:44:37.887Z,18.47
2022-09-14T16:49:39.851Z,18.34
2022-09-14T16:54:43.773Z,18.23
2022-09-14T16:59:46.753Z,18.09
2022-09-14T17:04:48.839Z,17.84
2022-09-14T17:09:53.876Z,17.60
2022-09-14T17:14:55.702Z,17.52
2022-09-14T17:19:58.245Z,17.47
2022-09-14T17:25:00.790Z,17.36
2022-09-14T17:30:03.303Z,17.20
2022-09-14T17:35:08.182Z,17.16
2022-09-14T17:40:10.824Z,17.01
2022-09-14T17:45:13.190Z,16.96
2022-09-14T17:50:16.631Z,16.91
2022-09-14T17:55:20.071Z,16.90
2022-09-14T18:00:22.927Z,16.90
2022-09-14T18:05:26.119Z,16.86
2022-09-14T18:10:29.642Z,16.82
2022-09-14T18:15:35.935Z,16.76
2022-09-14T18:20:41.997Z,16.69
2022-09-14T18:25:45.864Z,16.66
2022-09-14T18:30:49.535Z,16.66
2022-09-14T18:35:54.550Z,16.61
2022-09-14T18:41:10.361Z,16.44
2022-09-14T18:46:18.800Z,16.28
2022-09-14T18:51:27.749Z,16.27
2022-09-14T18:56:36.075Z,16.16
2022-09-14T19:01:42.450Z,16.02
2022-09-14T19:06:46.408Z,15.97
2022-09-14T19:11:53.884Z,15.96
2022-09-14T19:16:58.924Z,15.88
2022-09-14T19:22:03.107Z,15.91
2022-09-14T19:27:08.172Z,15.97
2022-09-14T19:32:11.748Z,16.01
2022-09-14T19:37:14.502Z,16.00
2022-09-14T19:42:18.791Z,15.99
2022-09-14T19:47:25.018Z,16.01
2022-09-14T19:52:28.844Z,16.01
2022-09-14T19:57:32.400Z,15.95
2022-09-14T20:02:35.868Z,15.89
2022-09-14T20:07:39.165Z,15.82
2022-09-14T20:12:41.940Z,15.82
2022-09-14T20:17:47.342Z,15.88
2022-09-14T20:22:51.191Z,15.82
2022-09-14T20:27:53.780Z,15.78
2022-09-14T20:32:56.834Z,15.84
2022-09-14T20:37:59.940Z,15.91
2022-09-14T20:43:02.664Z,15.97
2022-09-14T20:48:05.863Z,16.03
2022-09-14T20:53:08.129Z,16.11
2022-09-14T20:58:11.576Z,16.08
2022-09-14T21:03:14.967Z,16.06
2022-09-14T21:08:21.953Z,16.06
2022-09-14T21:13:24.844Z,16.11
2022-09-14T21:18:27.146Z,16.16
2022-09-14T21:23:30.115Z,16.22
2022-09-14T21:28:35.005Z,16.28
2022-09-14T21:33:38.738Z,16.33
2022-09-14T21:38:42.209Z,16.26
2022-09-14T21:43:45.699Z,16.24
2022-09-14T21:48:49.216Z,16.30
2022-09-14T21:54:00.043Z,16.34
2022-09-14T21:59:08.698Z,16.33
2022-09-14T22:04:23.068Z,16.25
2022-09-14T22:09:28.933Z,16.18
2022-09-14T22:14:34.958Z,16.16
2022-09-14T22:19:37.735Z,16.20
2022-09-14T22:24:42.022Z,16.12
2022-09-14T22:29:44.612Z,16.04
2022-09-14T22:34:50.580Z,16.03
2022-09-14T22:39:54.177Z,15.97
2022-09-14T22:44:57.288Z,15.87
2022-09-14T22:49:59.718Z,15.78
2022-09-14T22:55:02.132Z,15.79
2022-09-14T23:00:08.669Z,15.92
2022-09-14T23:05:11.081Z,16.01
2022-09-14T23:10:14.750Z,16.04
2022-09-14T23:15:17.055Z,16.06
2022-09-14T23:20:19.442Z,16.04
2022-09-14T23:25:21.674Z,16.02
2022-09-14T23:30:23.900Z,16.02
2022-09-14T23:35:27.028Z,16.06
2022-09-14T23:40:29.686Z,16.10
2022-09-14T23:45:33.293Z,16.10
2022-09-14T23:50:36.576Z,16.11
2022-09-14T23:55:42.249Z,16.02
